logo
Rechercher aéroport 
image banner adimage banner adimage banner ad
image banner ad

WARA - Malang / Abdulrachman Saleh

Situé à Malang, Indonesia

ICAO - WARA, IATA - MLG

Données fournies par Airmate  

Information générale

Coordonnées: S7°55'46" E112°42'43"
Élévation : 1726 feet MSL.
 
Voir autres Aéroports à Jawa Timur

Données opérationnelles

Special qualification required
Heure actuelle UTC:
Heure actuelle locale:
Météo à : WARR - Surabaya/Juanda ( 62 km )
METAR: WARR 281900Z 15004KT 8000 FEW020 28/26 Q1008 NOSIG
TAF: TAF WARR 281700Z 2818/2918 26004KT 8000 FEW020 BECMG 2821/2823 5000 HZ BECMG 2901/2903 11010KT 9999 NSW
Voir NOTAMs / SUP AIP / TFR affectant cet aéroport [VIEW]
Fréquences de communication: [VIEW]

Pistes:

Identifiant RWYQFULongueur (ft)Largeur (ft)SurfaceLDA (ft)
17166°8202131ASP
35346°8202131ASP

Coordonnées de l'aéroport

Adresse: Malang Indonesia

Vue satellite de WARA